createdAt,value
2017-01-19T00:00:34.610Z,135.88
2017-01-19T00:01:34.814Z,136.34
2017-01-19T00:02:34.624Z,136.61
2017-01-19T00:03:34.630Z,136.78
2017-01-19T00:04:34.622Z,137.79
2017-01-19T00:05:34.620Z,138.23
2017-01-19T00:06:34.634Z,139
2017-01-19T00:07:34.700Z,139.51
2017-01-19T00:08:34.622Z,140.02
2017-01-19T00:09:34.639Z,139.24
2017-01-19T00:10:34.617Z,139.77
2017-01-19T00:11:34.635Z,139.76
2017-01-19T00:12:34.620Z,137.71
2017-01-19T00:13:34.627Z,134.99
2017-01-19T00:14:34.615Z,133.76
2017-01-19T00:15:34.642Z,131.99
2017-01-19T00:16:34.625Z,131.73
2017-01-19T00:17:34.621Z,128.27
2017-01-19T00:18:34.638Z,128.01
2017-01-19T00:19:34.625Z,127.8
2017-01-19T00:20:34.628Z,129.01
2017-01-19T00:21:34.622Z,129.7
2017-01-19T00:22:34.645Z,133.75
2017-01-19T00:23:34.654Z,135.46
2017-01-19T00:24:34.619Z,137.68
2017-01-19T00:25:34.664Z,139.43
2017-01-19T00:26:34.617Z,142.69
2017-01-19T00:27:34.629Z,144.39
2017-01-19T00:28:34.645Z,145.9
2017-01-19T00:29:34.720Z,145.88
2017-01-19T00:30:34.636Z,145.86
2017-01-19T00:31:34.676Z,146.09
2017-01-19T00:32:34.635Z,146.81
2017-01-19T00:33:34.626Z,147.26
2017-01-19T00:34:34.629Z,149.24
2017-01-19T00:35:34.628Z,149.22
2017-01-19T00:36:34.638Z,150.66
2017-01-19T00:37:34.672Z,152.23
2017-01-19T00:38:34.636Z,153
2017-01-19T00:39:34.634Z,153.65
2017-01-19T00:40:34.633Z,155.42
2017-01-19T00:41:34.631Z,156.14
2017-01-19T00:42:34.623Z,157.69
2017-01-19T00:43:34.640Z,157.89
2017-01-19T00:44:34.767Z,158.37
2017-01-19T00:45:34.642Z,157.15
2017-01-19T00:46:34.636Z,156.19
2017-01-19T00:47:34.705Z,155.3
2017-01-19T00:48:34.650Z,152.83
2017-01-19T00:49:34.626Z,151.84
2017-01-19T00:50:34.668Z,152.11
2017-01-19T00:51:34.650Z,151.34
2017-01-19T00:52:35.528Z,153.59
2017-01-19T00:53:34.638Z,153.8
2017-01-19T00:54:34.632Z,155.04
2017-01-19T00:55:34.633Z,153.24
2017-01-19T00:56:34.638Z,153.02
2017-01-19T00:57:34.636Z,151.84
2017-01-19T00:58:34.654Z,151.01
2017-01-19T00:59:34.641Z,150.45
2017-01-19T01:00:34.637Z,151.24
2017-01-19T01:01:34.644Z,151.48
2017-01-19T01:02:34.634Z,150.24
2017-01-19T01:03:34.651Z,149.26
2017-01-19T01:04:34.638Z,149.57
2017-01-19T01:05:34.663Z,150.54
2017-01-19T01:06:34.647Z,150.26
2017-01-19T01:07:35.145Z,146.7
2017-01-19T01:08:34.701Z,150.75
2017-01-19T01:09:34.647Z,150.48
2017-01-19T01:10:34.659Z,151.11
2017-01-19T01:11:34.649Z,151.32
2017-01-19T01:12:34.646Z,150.78
2017-01-19T01:13:34.723Z,150.77
2017-01-19T01:14:34.678Z,150.76
2017-01-19T01:15:34.651Z,149.76
2017-01-19T01:16:34.649Z,150.01
2017-01-19T01:21:52.354Z,150.18
2017-01-19T01:22:02.365Z,154.77
2017-01-19T01:23:02.377Z,155.8
2017-01-19T01:24:02.376Z,155.82
2017-01-19T01:25:02.375Z,156.11
2017-01-19T01:26:02.376Z,155.58
2017-01-19T01:27:02.431Z,155.37
2017-01-19T01:28:02.378Z,156.86
2017-01-19T01:29:02.383Z,156.87
2017-01-19T01:30:02.378Z,158.6
2017-01-19T01:31:02.393Z,159.65
2017-01-19T01:32:02.377Z,161.36
2017-01-19T01:33:02.377Z,163.11
2017-01-19T01:34:02.382Z,164.59
2017-01-19T01:35:02.382Z,164.27
2017-01-19T01:36:02.408Z,164.79
2017-01-19T01:37:02.386Z,163.22
2017-01-19T01:38:02.401Z,163.76
2017-01-19T01:39:02.390Z,164.46
2017-01-19T01:40:02.389Z,165.77
2017-01-19T01:41:02.388Z,166.26
2017-01-19T01:42:02.439Z,167.71
2017-01-19T01:43:02.397Z,168.9
2017-01-19T01:44:02.498Z,169.69
2017-01-19T01:45:02.387Z,171.43
2017-01-19T01:46:02.383Z,171.2
2017-01-19T01:47:02.390Z,171.92
2017-01-19T01:48:02.391Z,173.63
2017-01-19T01:49:02.387Z,174.36
2017-01-19T01:50:02.388Z,177.03
2017-01-19T01:51:02.388Z,179.05
2017-01-19T01:52:02.492Z,181.48
2017-01-19T01:53:02.415Z,181.52
2017-01-19T01:54:02.407Z,183.22
2017-01-19T01:55:02.395Z,182.78
2017-01-19T01:56:02.395Z,182.56
2017-01-19T01:57:02.400Z,181.61
2017-01-19T01:58:02.414Z,182.08
2017-01-19T01:59:02.410Z,181.8
2017-01-19T02:00:02.392Z,182.58
2017-01-19T02:01:02.396Z,183.83
2017-01-19T02:02:02.399Z,185.22
2017-01-19T02:03:02.405Z,184.48
2017-01-19T02:04:02.410Z,185.23
2017-01-19T02:05:02.415Z,186.95
2017-01-19T02:06:02.405Z,187.89
2017-01-19T02:07:02.404Z,189.91
2017-01-19T02:08:02.406Z,189.86
2017-01-19T02:09:02.407Z,189.89
2017-01-19T02:10:02.517Z,189.18
2017-01-19T02:11:02.404Z,187.67
2017-01-19T02:12:02.413Z,188.13
2017-01-19T02:13:02.428Z,189.33
2017-01-19T02:14:02.452Z,189.63
2017-01-19T02:15:02.412Z,190.87
2017-01-19T02:16:02.407Z,192.55
2017-01-19T02:17:02.420Z,195.25
2017-01-19T02:18:02.535Z,198.16
2017-01-19T02:19:02.427Z,199.33
2017-01-19T02:20:02.428Z,200.8
2017-01-19T02:21:02.415Z,201.12
2017-01-19T02:25:30.067Z,201.23
2017-01-19T02:26:30.068Z,199.55
2017-01-19T02:27:30.063Z,199.25
2017-01-19T02:28:30.066Z,201.28
2017-01-19T02:29:30.066Z,198.06
2017-01-19T02:30:30.062Z,197.08
2017-01-19T02:31:30.067Z,201.32
2017-01-19T02:32:30.067Z,201.38
2017-01-19T02:33:30.084Z,200.87
2017-01-19T02:34:30.067Z,200.62
2017-01-19T02:35:30.176Z,201.15
2017-01-19T02:36:30.080Z,201.87
2017-01-19T02:37:30.079Z,204.07
2017-01-19T02:38:30.070Z,207.99
2017-01-19T02:39:30.084Z,208.19
2017-01-19T02:40:30.075Z,209.62
2017-01-19T02:41:30.071Z,211.09
2017-01-19T02:42:30.105Z,211.36
2017-01-19T02:43:30.090Z,212.24
2017-01-19T02:44:30.077Z,214.24
2017-01-19T02:45:30.084Z,215.88
2017-01-19T02:46:30.086Z,215.34
2017-01-19T02:47:30.081Z,216.59
2017-01-19T02:48:30.083Z,218.93
2017-01-19T02:49:30.105Z,219.86
2017-01-19T02:50:30.087Z,219.87
2017-01-19T02:51:30.088Z,220.6
2017-01-19T02:52:30.096Z,221.01
2017-01-19T02:53:30.088Z,221.24
2017-01-19T02:54:30.101Z,221.52
2017-01-19T02:55:30.087Z,219.75
2017-01-19T02:56:30.133Z,219.85
2017-01-19T02:57:30.131Z,218.88
2017-01-19T02:58:30.095Z,218.56
2017-01-19T02:59:30.093Z,217.13
2017-01-19T03:00:30.089Z,216.87
2017-01-19T03:01:30.092Z,217.92
2017-01-19T03:02:30.102Z,218.14
2017-01-19T03:03:30.099Z,219.35
2017-01-19T03:04:30.219Z,220.81
2017-01-19T03:05:30.103Z,221.04
2017-01-19T03:06:30.105Z,221.8
2017-01-19T03:07:30.103Z,221.99
2017-01-19T03:08:30.105Z,223.19
2017-01-19T03:09:30.102Z,224.16
2017-01-19T03:10:30.105Z,222.95
2017-01-19T03:11:30.104Z,222.47
2017-01-19T03:12:30.105Z,222.42
2017-01-19T03:13:30.107Z,223.21
2017-01-19T03:14:30.116Z,224.64
2017-01-19T03:15:30.108Z,225.34
2017-01-19T03:16:30.172Z,226.51
2017-01-19T03:17:30.126Z,225.52
2017-01-19T03:18:30.124Z,226
2017-01-19T03:19:30.114Z,226.45
2017-01-19T03:20:30.109Z,226.2
2017-01-19T03:21:30.175Z,225.96
2017-01-19T03:22:30.119Z,225.9
2017-01-19T03:29:12.919Z,229.66
2017-01-19T03:30:11.105Z,230.39
2017-01-19T03:31:14.216Z,230.89
2017-01-19T03:32:13.630Z,230.62
2017-01-19T03:33:13.266Z,230.15
2017-01-19T03:34:13.798Z,228.68
2017-01-19T03:35:13.561Z,228.31
2017-01-19T03:36:13.644Z,227.55
2017-01-19T03:37:13.727Z,228.14
2017-01-19T03:38:13.600Z,228.37
2017-01-19T03:39:13.377Z,228.68
2017-01-19T03:40:14.019Z,227.98
2017-01-19T03:41:13.571Z,227.74
2017-01-19T03:42:13.404Z,226.87
2017-01-19T03:43:13.684Z,223.49
2017-01-19T03:44:13.833Z,222.34
2017-01-19T03:45:14.236Z,219.94
2017-01-19T03:46:14.166Z,217.49
2017-01-19T03:47:13.097Z,215.58
2017-01-19T03:48:13.856Z,213.67
2017-01-19T03:49:14.130Z,213.65
2017-01-19T03:50:13.950Z,213.41
2017-01-19T03:51:13.521Z,212.98
2017-01-19T03:52:13.956Z,212.55
2017-01-19T03:53:14.137Z,213.7
2017-01-19T03:54:13.609Z,213.96
2017-01-19T03:55:13.803Z,213.66
2017-01-19T03:56:13.642Z,212.88
2017-01-19T03:57:13.609Z,214.39
2017-01-19T03:58:13.717Z,213.15
2017-01-19T03:59:13.524Z,214.42
2017-01-19T04:00:13.403Z,214.21
2017-01-19T04:01:12.911Z,213.7
2017-01-19T04:02:13.493Z,211.75
2017-01-19T04:03:14.131Z,210.85
2017-01-19T04:04:14.078Z,209.6
2017-01-19T04:08:57.166Z,209.33
2017-01-19T04:09:57.724Z,208.87
2017-01-19T04:10:57.108Z,207.86
2017-01-19T04:11:56.992Z,205.13
2017-01-19T04:12:57.036Z,203.05
2017-01-19T04:13:56.796Z,200.58
2017-01-19T04:14:57.037Z,198.88
2017-01-19T04:15:57.549Z,197.45
2017-01-19T04:16:57.832Z,195.01
2017-01-19T04:17:57.569Z,192.36
2017-01-19T04:18:57.269Z,190.62
2017-01-19T04:19:57.407Z,189.42
2017-01-19T04:20:57.160Z,188.15
2017-01-19T04:21:57.292Z,185.4
2017-01-19T04:22:57.391Z,183.25
2017-01-19T04:23:57.244Z,183.18
2017-01-19T04:24:57.252Z,182.46
2017-01-19T04:25:57.401Z,181.69
2017-01-19T04:26:57.077Z,180.91
2017-01-19T04:27:57.288Z,180.7
2017-01-19T04:28:57.131Z,179.91
2017-01-19T04:29:57.328Z,179.4
2017-01-19T04:30:57.121Z,179.69
2017-01-19T04:31:57.450Z,180.37
2017-01-19T04:32:57.710Z,180.4
2017-01-19T04:33:57.664Z,180.09
2017-01-19T04:34:57.596Z,181.38
2017-01-19T04:35:58.338Z,184.53
2017-01-19T04:36:57.391Z,185.45
2017-01-19T04:37:57.227Z,187.88
2017-01-19T04:38:56.936Z,188.63
2017-01-19T04:39:54.681Z,187.06
2017-01-19T04:40:54.672Z,184.39
2017-01-19T04:41:54.681Z,184.66
2017-01-19T04:42:54.680Z,183.87
2017-01-19T04:43:54.692Z,184.61
2017-01-19T04:44:54.686Z,182.24
2017-01-19T04:45:54.676Z,179.21
2017-01-19T04:46:54.684Z,177.53
2017-01-19T04:47:54.692Z,175.56
2017-01-19T04:48:54.682Z,173.61
2017-01-19T04:49:54.688Z,173.1
2017-01-19T04:50:54.684Z,172.9
2017-01-19T04:51:54.685Z,171.39
2017-01-19T04:52:54.691Z,170.68
2017-01-19T04:53:54.699Z,169.65
2017-01-19T04:54:54.690Z,168.64
2017-01-19T04:55:54.695Z,168.13
2017-01-19T04:56:54.703Z,169.65
2017-01-19T04:57:54.698Z,170.37
2017-01-19T04:58:54.695Z,170.18
2017-01-19T04:59:54.696Z,169.93
2017-01-19T05:00:54.692Z,170.38
2017-01-19T05:01:54.694Z,170.41
2017-01-19T05:02:54.701Z,169.63
2017-01-19T05:03:54.696Z,169.88
2017-01-19T05:04:54.690Z,169.33
2017-01-19T05:11:32.094Z,160.63
2017-01-19T05:12:32.096Z,160.14
2017-01-19T05:13:32.098Z,158.88
2017-01-19T05:14:32.105Z,158.42
2017-01-19T05:15:32.094Z,158.2
2017-01-19T05:16:32.096Z,156.46
2017-01-19T05:17:32.094Z,155.7
2017-01-19T05:18:32.104Z,155.2
2017-01-19T05:19:32.104Z,153.74
2017-01-19T05:20:32.100Z,150.55
2017-01-19T05:21:32.104Z,146.61
2017-01-19T05:22:32.107Z,142.88
2017-01-19T05:23:32.103Z,140.91
2017-01-19T05:24:32.103Z,137.21
2017-01-19T05:25:32.104Z,135.22
2017-01-19T05:26:32.095Z,134.2
2017-01-19T05:27:32.110Z,131.24
2017-01-19T05:28:32.102Z,128.73
2017-01-19T05:29:32.111Z,127.02
2017-01-19T05:30:32.104Z,124.5
2017-01-19T05:31:32.104Z,121.73
2017-01-19T05:32:32.109Z,117.91
2017-01-19T05:33:32.106Z,115.92
2017-01-19T05:34:32.109Z,113.9
2017-01-19T05:35:32.110Z,112.39
2017-01-19T05:36:32.107Z,111.17
2017-01-19T05:37:32.110Z,109.69
2017-01-19T05:38:32.106Z,106.69
2017-01-19T05:39:32.105Z,104.96
2017-01-19T05:40:32.104Z,102.39
2017-01-19T05:41:32.110Z,102.66
2017-01-19T05:42:32.117Z,96.73
2017-01-19T05:43:32.108Z,99.05
2017-01-19T05:44:32.127Z,96.81
2017-01-19T05:45:32.120Z,94.5
2017-01-19T05:46:32.115Z,91.42
2017-01-19T05:47:32.107Z,89.71
2017-01-19T05:48:32.112Z,87.12
2017-01-19T05:49:32.109Z,84.53
2017-01-19T05:50:32.106Z,82.23
2017-01-19T05:51:32.119Z,82.54
2017-01-19T05:52:32.122Z,79.2
2017-01-19T05:53:32.113Z,78.16
2017-01-19T05:54:32.118Z,74.15
2017-01-19T05:55:32.122Z,72.82
2017-01-19T05:56:32.117Z,72.01
2017-01-19T05:57:32.114Z,71.82
2017-01-19T05:58:32.132Z,72.82
2017-01-19T05:59:32.115Z,73.83
2017-01-19T06:00:32.124Z,75.64
2017-01-19T06:01:32.117Z,76.59
2017-01-19T06:02:32.119Z,77.62
2017-01-19T06:03:32.127Z,76.65
2017-01-19T06:04:32.124Z,77.18
2017-01-19T06:05:32.122Z,75.95
2017-01-19T06:06:32.125Z,76.73
2017-01-19T06:07:32.123Z,77.5
2017-01-19T06:08:32.143Z,76.99
2017-01-19T06:09:32.118Z,77.71
2017-01-19T06:10:32.141Z,79.04
2017-01-19T06:11:32.162Z,76.69
2017-01-19T06:12:32.135Z,74.92
2017-01-19T06:13:32.132Z,74.94
2017-01-19T06:14:32.130Z,74.41
2017-01-19T06:15:32.134Z,74.43
2017-01-19T06:16:32.122Z,74.19
2017-01-19T06:17:32.130Z,71.63
2017-01-19T06:18:32.135Z,70.49
2017-01-19T06:19:32.136Z,68.9
2017-01-19T06:20:32.143Z,65.6
2017-01-19T06:21:32.139Z,63.85
2017-01-19T06:22:32.153Z,62.04
2017-01-19T06:23:32.173Z,60.01
2017-01-19T06:24:32.142Z,59.52
2017-01-19T06:25:32.158Z,58.26
2017-01-19T06:26:32.131Z,55.49
2017-01-19T06:27:32.128Z,52.45
2017-01-19T06:28:32.138Z,50.48
2017-01-19T06:29:32.139Z,48.05
2017-01-19T06:30:32.141Z,45.72
2017-01-19T06:31:32.132Z,43.39
2017-01-19T06:32:32.128Z,43.17
2017-01-19T06:33:32.146Z,43.24
2017-01-19T06:34:32.140Z,41.17
2017-01-19T06:35:32.137Z,39.06
2017-01-19T06:36:32.160Z,37.04
2017-01-19T06:37:32.149Z,34.45
2017-01-19T06:38:32.192Z,33.13
2017-01-19T06:39:32.133Z,31.64
2017-01-19T06:40:32.149Z,29.78
2017-01-19T06:41:32.145Z,29.54
2017-01-19T06:42:32.140Z,29.04
2017-01-19T06:43:32.139Z,29.32
2017-01-19T06:44:32.140Z,29.83
2017-01-19T06:45:32.153Z,31.13
2017-01-19T06:46:32.152Z,31.73
2017-01-19T06:47:32.146Z,30.66
2017-01-19T06:48:32.173Z,29.87
2017-01-19T06:49:32.161Z,28.57
2017-01-19T06:50:32.149Z,28.33
2017-01-19T06:51:32.152Z,28.83
2017-01-19T06:52:32.146Z,29.34
2017-01-19T06:53:32.151Z,29.94
2017-01-19T06:54:32.157Z,30.93
2017-01-19T06:55:32.152Z,31.73
2017-01-19T06:56:32.155Z,32.78
2017-01-19T06:57:32.169Z,33.31
2017-01-19T06:58:32.152Z,33.57
2017-01-19T06:59:32.152Z,33.24
2017-01-19T07:00:32.156Z,33.81
2017-01-19T07:01:32.162Z,34.36
2017-01-19T07:02:32.153Z,35.69
2017-01-19T07:03:32.155Z,35.78
2017-01-19T07:04:32.162Z,36.21
2017-01-19T07:05:32.168Z,37.58
2017-01-19T07:06:32.170Z,37.8
2017-01-19T07:07:32.170Z,36.48
2017-01-19T07:08:32.152Z,35.71
2017-01-19T07:09:32.155Z,34.44
2017-01-19T07:10:32.152Z,34.44
2017-01-19T07:11:32.184Z,33.19
2017-01-19T07:12:32.152Z,32.73
2017-01-19T07:13:32.159Z,31.19
2017-01-19T07:14:32.159Z,29.13
2017-01-19T07:15:32.163Z,28.61
2017-01-19T07:16:32.165Z,29.41
2017-01-19T07:17:32.163Z,27.28
2017-01-19T07:18:32.165Z,25.54
2017-01-19T07:19:32.155Z,24.54
2017-01-19T07:20:32.160Z,24.84
2017-01-19T07:21:32.176Z,24.6
2017-01-19T07:22:32.170Z,25.4
2017-01-19T07:23:32.167Z,26.51
2017-01-19T07:24:32.174Z,27.82
2017-01-19T07:25:32.164Z,28.49
2017-01-19T07:26:32.167Z,29.86
2017-01-19T07:27:32.166Z,30.86
2017-01-19T07:28:32.168Z,31.69
2017-01-19T07:29:32.165Z,33.52
2017-01-19T07:30:32.165Z,33.29
2017-01-19T07:31:32.171Z,33.28
2017-01-19T07:32:32.186Z,35.39
2017-01-19T07:33:32.234Z,35.37
2017-01-19T07:34:32.166Z,34.32
2017-01-19T07:35:32.174Z,34.9
2017-01-19T07:36:32.182Z,34.12
2017-01-19T07:37:32.169Z,33.31
2017-01-19T07:38:32.173Z,32.52
2017-01-19T07:39:32.175Z,33.85
2017-01-19T07:40:32.178Z,34.63
2017-01-19T07:41:32.183Z,35.66
2017-01-19T07:42:32.178Z,39.56
2017-01-19T07:43:32.176Z,41.83
2017-01-19T07:44:32.189Z,45.22
2017-01-19T07:45:32.179Z,48.56
2017-01-19T07:46:32.177Z,50.6
2017-01-19T07:47:32.183Z,55.15
2017-01-19T07:48:32.169Z,51.74
2017-01-19T07:49:32.181Z,56.71
2017-01-19T07:50:32.199Z,58.25
2017-01-19T07:51:32.191Z,60.01
2017-01-19T07:52:32.197Z,62.81
2017-01-19T07:53:32.200Z,64.07
2017-01-19T07:54:32.182Z,69.15
2017-01-19T07:55:32.183Z,72.47
2017-01-19T07:56:32.181Z,76.56
2017-01-19T07:57:32.187Z,81.08
2017-01-19T07:58:32.177Z,85.72
2017-01-19T07:59:32.212Z,91.82
2017-01-19T08:00:32.175Z,97.07
2017-01-19T08:01:32.180Z,103.19
2017-01-19T08:02:32.188Z,107.71
2017-01-19T08:03:32.259Z,113.21
2017-01-19T08:04:32.187Z,118.02
2017-01-19T08:05:32.183Z,122.23
2017-01-19T08:06:32.302Z,128.23
2017-01-19T08:07:32.181Z,134.77
2017-01-19T08:08:32.186Z,139.86
2017-01-19T08:09:32.198Z,145.07
2017-01-19T08:10:32.180Z,149.31
2017-01-19T08:11:32.193Z,152.4
2017-01-19T08:12:32.193Z,157.59
2017-01-19T08:13:32.197Z,161.55
2017-01-19T08:14:32.183Z,165.39
2017-01-19T08:15:32.188Z,169.32
2017-01-19T08:16:32.238Z,171.82
2017-01-19T08:17:32.189Z,173.31
2017-01-19T08:18:32.192Z,174.03
2017-01-19T08:19:32.195Z,176.21
2017-01-19T08:20:32.199Z,179.66
2017-01-19T08:21:32.189Z,180.36
2017-01-19T08:22:32.192Z,180.15
2017-01-19T08:23:32.203Z,180.24
2017-01-19T08:24:32.187Z,179.01
2017-01-19T08:25:32.224Z,178.94
2017-01-19T08:26:32.198Z,180.4
2017-01-19T08:27:32.213Z,181.4
2017-01-19T08:28:32.202Z,183.56
2017-01-19T08:29:32.197Z,186.02
2017-01-19T08:30:32.245Z,188.4
2017-01-19T08:31:32.228Z,191.76
2017-01-19T08:32:32.224Z,196.31
2017-01-19T08:33:32.197Z,202.66
2017-01-19T08:34:32.203Z,209.66
2017-01-19T08:35:32.203Z,215.66
2017-01-19T08:36:32.202Z,222.38
2017-01-19T08:37:32.211Z,228.61
2017-01-19T08:38:32.288Z,234.58
2017-01-19T08:39:32.207Z,239.53
2017-01-19T08:40:32.208Z,244.49
2017-01-19T08:41:32.209Z,247.85
2017-01-19T08:42:32.309Z,250.49
2017-01-19T08:43:32.211Z,251.44
2017-01-19T08:44:32.214Z,250.74
2017-01-19T08:45:32.207Z,249.82
2017-01-19T08:46:32.215Z,249.59
2017-01-19T08:47:32.242Z,249.43
2017-01-19T08:48:32.258Z,249.2
2017-01-19T08:49:32.316Z,248.78
2017-01-19T08:50:32.244Z,248.04
2017-01-19T08:51:32.272Z,248.08
2017-01-19T08:52:32.271Z,248.48
2017-01-19T08:53:32.223Z,248.22
2017-01-19T08:54:32.216Z,249.84
2017-01-19T08:55:32.214Z,251.44
2017-01-19T08:56:32.223Z,251.91
2017-01-19T08:57:32.225Z,253.88
2017-01-19T08:58:32.226Z,254.17
2017-01-19T08:59:32.219Z,253.51
2017-01-19T09:00:32.230Z,250.98
2017-01-19T09:01:32.231Z,247.39
2017-01-19T09:02:32.221Z,246.31
2017-01-19T09:03:32.222Z,244.45
2017-01-19T09:04:32.221Z,243.24
2017-01-19T09:05:32.215Z,244.06
2017-01-19T09:06:32.215Z,242.08
2017-01-19T09:07:32.224Z,242.34
2017-01-19T09:08:32.221Z,242.89
2017-01-19T09:09:32.232Z,240.55
2017-01-19T09:10:32.230Z,238.92
2017-01-19T09:11:32.231Z,237.53
2017-01-19T09:12:32.231Z,233.81
2017-01-19T09:13:32.231Z,228.05
2017-01-19T09:14:32.224Z,225.46
2017-01-19T09:15:32.229Z,222.79
2017-01-19T09:16:32.239Z,220.28
2017-01-19T09:17:32.253Z,218.58
2017-01-19T09:18:32.242Z,217.35
2017-01-19T09:19:32.236Z,218.05
2017-01-19T09:20:32.234Z,216.13
2017-01-19T09:21:32.235Z,214.94
2017-01-19T09:22:32.231Z,214.26
2017-01-19T09:23:32.240Z,213.59
2017-01-19T09:24:32.229Z,213.55
2017-01-19T09:25:32.242Z,212.88
2017-01-19T09:26:32.227Z,212.38
2017-01-19T09:27:32.235Z,210.21
2017-01-19T09:28:32.287Z,209.26
2017-01-19T09:29:32.278Z,209.76
2017-01-19T09:30:32.239Z,209.79
2017-01-19T09:31:32.235Z,208.57
2017-01-19T09:32:32.250Z,207.35
2017-01-19T09:33:32.243Z,207.56
2017-01-19T09:34:32.367Z,209.29
2017-01-19T09:35:32.242Z,210.16
2017-01-19T09:36:32.235Z,213.99
2017-01-19T09:37:32.256Z,216.59
2017-01-19T09:38:32.266Z,218.48
2017-01-19T09:39:32.230Z,220.83
2017-01-19T09:40:32.239Z,224.71
2017-01-19T09:41:32.239Z,227.58
2017-01-19T09:42:32.238Z,230.23
2017-01-19T09:43:32.240Z,234.28
2017-01-19T09:44:32.258Z,238.65
2017-01-19T09:45:32.350Z,242.25
2017-01-19T09:46:32.270Z,246.77
2017-01-19T09:47:32.240Z,251.52
2017-01-19T09:48:32.238Z,258.37
2017-01-19T09:52:59.110Z,289.57
2017-01-19T09:53:59.124Z,296.51
2017-01-19T09:54:59.269Z,304.13
2017-01-19T09:55:59.168Z,311.06
2017-01-19T09:56:59.128Z,319.1
2017-01-19T09:57:59.132Z,325.93
2017-01-19T09:58:59.123Z,333.41
2017-01-19T09:59:59.131Z,339.3
2017-01-19T10:00:59.120Z,345.83
2017-01-19T10:01:59.118Z,351.93
2017-01-19T10:02:59.139Z,357.99
2017-01-19T10:03:59.123Z,364.28
2017-01-19T10:04:59.217Z,372.97
2017-01-19T10:05:59.204Z,381.58
2017-01-19T10:06:59.148Z,389.93
2017-01-19T10:07:59.129Z,399.98
2017-01-19T10:08:59.123Z,409.57
2017-01-19T10:09:59.135Z,419.54
2017-01-19T10:10:59.135Z,428.1
2017-01-19T10:11:59.131Z,436.38
2017-01-19T10:12:59.128Z,446.46
2017-01-19T10:13:59.144Z,454.64
2017-01-19T10:14:59.143Z,461.8
2017-01-19T10:15:59.145Z,469.37
2017-01-19T10:16:59.125Z,476.91
2017-01-19T10:17:59.147Z,484.88
2017-01-19T10:18:59.137Z,491.83
2017-01-19T10:19:59.144Z,499.47
2017-01-19T10:20:59.143Z,505.02
2017-01-19T10:21:59.133Z,510.53
2017-01-19T10:22:59.141Z,515.62
2017-01-19T10:23:59.144Z,520.05
2017-01-19T10:24:59.131Z,524.5
2017-01-19T10:25:59.129Z,530.14
2017-01-19T10:26:59.138Z,536.15
2017-01-19T10:27:59.131Z,541.95
2017-01-19T10:28:59.142Z,547.47
2017-01-19T10:29:59.214Z,554.4
2017-01-19T10:30:59.210Z,558.13
2017-01-19T10:31:59.152Z,563.68
2017-01-19T10:32:59.133Z,568.77
2017-01-19T10:33:59.144Z,573.85
2017-01-19T10:34:59.148Z,578.99
2017-01-19T10:35:59.138Z,583.44
2017-01-19T10:36:59.183Z,589.27
2017-01-19T10:37:59.152Z,593.91
2017-01-19T10:38:59.143Z,598.54
2017-01-19T10:39:59.155Z,603.36
2017-01-19T10:40:59.146Z,606.72
2017-01-19T10:41:59.151Z,608.37
2017-01-19T10:42:59.141Z,608.35
2017-01-19T10:43:59.151Z,608.3
2017-01-19T10:44:59.154Z,609.88
2017-01-19T10:45:59.150Z,610.16
2017-01-19T10:46:59.156Z,611.45
2017-01-19T10:47:59.147Z,611.25
2017-01-19T10:48:59.152Z,611.19
2017-01-19T10:49:59.150Z,610.28
2017-01-19T10:50:59.152Z,609.71
2017-01-19T10:51:59.158Z,606.87
2017-01-19T10:52:59.154Z,599.73
2017-01-19T10:53:59.156Z,592.46
2017-01-19T10:54:59.153Z,586.27
2017-01-19T10:55:59.168Z,582.9
2017-01-19T10:56:59.160Z,579.77
2017-01-19T10:57:59.163Z,578.84
2017-01-19T10:58:59.173Z,576.13
2017-01-19T10:59:59.188Z,575.95
2017-01-19T11:00:59.168Z,576.92
2017-01-19T11:01:59.157Z,576.64
2017-01-19T11:02:59.161Z,575.03
2017-01-19T11:03:59.162Z,573.49
2017-01-19T11:04:59.177Z,572.13
2017-01-19T11:05:59.178Z,569.95
2017-01-19T11:06:59.184Z,566.74
2017-01-19T11:07:59.163Z,562.75
2017-01-19T11:08:59.171Z,560.14
2017-01-19T11:09:59.173Z,557.35
2017-01-19T11:10:59.172Z,553.98
2017-01-19T11:11:59.166Z,548.24
2017-01-19T11:12:59.173Z,541.87
2017-01-19T11:13:59.173Z,534.81
2017-01-19T11:14:59.189Z,527.44
2017-01-19T11:15:59.173Z,520.27
2017-01-19T11:16:59.180Z,512.09
2017-01-19T11:17:59.173Z,505.97
2017-01-19T11:18:59.183Z,499.85
2017-01-19T11:19:59.175Z,493.28
2017-01-19T11:20:59.182Z,485.99
2017-01-19T11:21:59.170Z,479.93
2017-01-19T11:22:59.176Z,474.52
2017-01-19T11:23:59.179Z,469.72
2017-01-19T11:24:59.182Z,465.37
2017-01-19T11:25:59.195Z,461.11
2017-01-19T11:26:59.184Z,454.82
2017-01-19T11:27:59.205Z,451.09
2017-01-19T11:28:59.186Z,448.3
2017-01-19T11:29:59.186Z,444.86
2017-01-19T11:30:59.186Z,442.49
2017-01-19T11:31:59.183Z,440.79
2017-01-19T11:32:59.191Z,434.78
2017-01-19T11:33:59.183Z,435.69
2017-01-19T11:34:59.191Z,434.2
2017-01-19T11:35:59.194Z,433.53
2017-01-19T11:36:59.188Z,433.11
2017-01-19T11:37:59.200Z,431.38
2017-01-19T11:38:59.195Z,430.51
2017-01-19T11:39:59.197Z,427.22
2017-01-19T11:40:59.195Z,425.04
2017-01-19T11:41:59.195Z,424.16
2017-01-19T11:42:59.201Z,426.58
2017-01-19T11:43:59.206Z,429.35
2017-01-19T11:44:59.203Z,431.67
2017-01-19T11:45:59.190Z,435.04
2017-01-19T11:46:59.200Z,438.01
2017-01-19T11:47:59.201Z,441.96
2017-01-19T11:48:59.206Z,443.42
2017-01-19T11:49:59.310Z,445.4
2017-01-19T11:50:59.211Z,446.93
2017-01-19T11:51:59.200Z,447.74
2017-01-19T11:52:59.208Z,449.06
2017-01-19T11:53:59.200Z,449.67
2017-01-19T11:54:59.204Z,449.89
2017-01-19T11:55:59.217Z,451.4
2017-01-19T11:56:59.207Z,452.78
2017-01-19T11:57:59.211Z,453.48
2017-01-19T11:58:59.205Z,454.05
2017-01-19T11:59:59.226Z,454.97
2017-01-19T12:00:59.307Z,456.52
2017-01-19T12:01:59.207Z,458.4
2017-01-19T12:02:59.219Z,460.95
2017-01-19T12:03:59.206Z,463.13
2017-01-19T12:04:59.256Z,465
2017-01-19T12:05:59.253Z,466.9
2017-01-19T12:07:00.003Z,469.43
2017-01-19T12:07:59.225Z,470.2
2017-01-19T12:08:59.222Z,472.75
2017-01-19T12:09:59.226Z,475.32
2017-01-19T12:10:59.264Z,477.47
2017-01-19T12:11:59.213Z,477.58
2017-01-19T12:12:59.281Z,477.99
2017-01-19T12:13:59.236Z,478.76
2017-01-19T12:14:59.214Z,481.08
2017-01-19T12:15:59.212Z,483.56
2017-01-19T12:16:59.213Z,485.21
2017-01-19T12:17:59.253Z,486.25
2017-01-19T12:18:59.971Z,486.69
2017-01-19T12:19:59.207Z,487.43
2017-01-19T12:20:59.218Z,489.7
2017-01-19T12:21:59.259Z,491.69
2017-01-19T12:22:59.219Z,494.76
2017-01-19T12:23:59.222Z,497.23
2017-01-19T12:24:59.321Z,500.67
2017-01-19T12:25:59.218Z,502.92
2017-01-19T12:26:59.232Z,504.31
2017-01-19T12:27:59.240Z,506.51
2017-01-19T12:28:59.222Z,508.98
2017-01-19T12:29:59.220Z,511.75
2017-01-19T12:30:59.229Z,514.01
2017-01-19T12:31:59.236Z,516.08
2017-01-19T12:32:59.226Z,518.09
2017-01-19T12:33:59.244Z,519
2017-01-19T12:34:59.226Z,521.25
2017-01-19T12:35:59.231Z,523.64
2017-01-19T12:36:59.231Z,525.26
2017-01-19T12:37:59.234Z,529.11
2017-01-19T12:38:59.230Z,530.9
2017-01-19T12:39:59.234Z,532.22
2017-01-19T12:40:59.247Z,535.41
2017-01-19T12:41:59.281Z,537.81
2017-01-19T12:42:59.244Z,539.84
2017-01-19T12:43:59.237Z,542.81
2017-01-19T12:44:59.288Z,544.58
2017-01-19T12:45:59.245Z,547.16
2017-01-19T12:46:59.252Z,547.96
2017-01-19T12:47:59.250Z,549.55
2017-01-19T12:48:59.246Z,550.75
2017-01-19T12:49:59.244Z,552.08
2017-01-19T12:50:59.242Z,554.06
2017-01-19T12:51:59.247Z,555.44
2017-01-19T12:52:59.239Z,556.15
2017-01-19T12:53:59.245Z,558.24
2017-01-19T12:54:59.253Z,560.22
2017-01-19T12:55:59.247Z,563.81
2017-01-19T12:56:59.259Z,566.17
2017-01-19T12:57:59.242Z,568.65
2017-01-19T12:58:59.242Z,570.02
2017-01-19T12:59:59.277Z,571.29
2017-01-19T13:00:59.251Z,573.12